createdAt,value
2019-01-15T00:01:51.053Z,2.29
2019-01-15T00:06:56.435Z,2.33
2019-01-15T00:12:07.849Z,2.28
2019-01-15T00:17:09.013Z,2.37
2019-01-15T00:22:14.196Z,2.36
2019-01-15T00:27:19.349Z,2.40
2019-01-15T00:32:25.726Z,2.41
2019-01-15T00:37:31.144Z,2.43
2019-01-15T00:42:36.205Z,2.43
2019-01-15T00:47:41.607Z,2.46
2019-01-15T00:52:46.581Z,2.44
2019-01-15T00:57:51.594Z,2.41
2019-01-15T01:02:56.603Z,2.43
2019-01-15T01:08:01.862Z,2.44
2019-01-15T01:13:07.078Z,2.52
2019-01-15T01:18:12.369Z,2.49
2019-01-15T01:23:17.477Z,2.48
2019-01-15T01:28:22.512Z,2.42
2019-01-15T01:33:27.521Z,2.48
2019-01-15T01:38:32.584Z,2.43
2019-01-15T01:43:37.629Z,2.51
2019-01-15T01:48:42.660Z,2.55
2019-01-15T01:53:47.635Z,2.52
2019-01-15T01:58:52.650Z,2.52
2019-01-15T02:03:57.707Z,2.47
2019-01-15T02:09:03.329Z,2.52
2019-01-15T02:14:09.352Z,2.51
2019-01-15T02:19:22.293Z,2.48
2019-01-15T02:24:27.671Z,2.45
2019-01-15T02:29:32.686Z,2.45
2019-01-15T02:34:37.760Z,2.50
2019-01-15T02:39:42.838Z,2.47
2019-01-15T02:44:48.977Z,2.43
2019-01-15T02:49:54.028Z,2.46
2019-01-15T02:54:59.137Z,2.43
2019-01-15T03:00:05.855Z,2.40
2019-01-15T03:05:11.425Z,2.38
2019-01-15T03:10:17.912Z,2.46
2019-01-15T03:15:24.225Z,2.45
2019-01-15T03:20:30.474Z,2.48
2019-01-15T03:25:35.495Z,2.49
2019-01-15T03:30:40.502Z,2.55
2019-01-15T03:35:45.518Z,2.56
2019-01-15T03:40:50.707Z,2.61
2019-01-15T03:46:03.965Z,2.68
2019-01-15T03:51:03.378Z,2.67
2019-01-15T03:56:08.458Z,2.73
2019-01-15T04:01:13.454Z,2.79
2019-01-15T04:06:18.495Z,2.84
2019-01-15T04:11:23.656Z,2.83
2019-01-15T04:16:28.697Z,2.84
2019-01-15T04:21:33.798Z,2.86
2019-01-15T04:26:40.821Z,2.83
2019-01-15T04:31:45.776Z,2.89
2019-01-15T04:36:50.796Z,2.82
2019-01-15T04:41:55.838Z,2.89
2019-01-15T04:47:01.265Z,2.91
2019-01-15T04:52:07.013Z,2.88
2019-01-15T04:57:12.169Z,2.89
2019-01-15T05:02:17.296Z,2.90
2019-01-15T05:07:22.310Z,2.84
2019-01-15T05:12:27.414Z,2.90
2019-01-15T05:17:32.557Z,2.87
2019-01-15T05:22:37.644Z,2.93
2019-01-15T05:27:42.695Z,2.94
2019-01-15T05:32:47.769Z,2.94
2019-01-15T05:37:53.068Z,2.90
2019-01-15T05:42:58.181Z,2.94
2019-01-15T05:48:09.149Z,2.97
2019-01-15T05:53:14.570Z,2.94
2019-01-15T05:58:19.698Z,2.93
2019-01-15T06:03:24.766Z,2.96
2019-01-15T06:08:30.111Z,2.93
2019-01-15T06:13:35.155Z,2.94
2019-01-15T06:18:40.161Z,2.94
2019-01-15T06:23:45.550Z,2.97
2019-01-15T06:28:51.152Z,2.96
2019-01-15T06:34:03.379Z,2.94
2019-01-15T06:39:10.210Z,2.94
2019-01-15T06:44:16.124Z,3.01
2019-01-15T06:49:26.689Z,2.99
2019-01-15T06:54:34.041Z,3.05
2019-01-15T06:59:45.552Z,3.03
2019-01-15T07:04:50.703Z,3.09
2019-01-15T07:09:56.024Z,3.04
2019-01-15T07:15:01.599Z,3.04
2019-01-15T07:20:15.443Z,3.06
2019-01-15T07:25:21.258Z,3.14
2019-01-15T07:30:42.029Z,3.20
2019-01-15T07:35:47.435Z,3.26
2019-01-15T07:40:52.796Z,3.24
2019-01-15T07:45:58.090Z,3.27
2019-01-15T07:51:03.798Z,3.32
2019-01-15T07:56:08.916Z,3.38
2019-01-15T08:01:19.626Z,3.37
2019-01-15T08:06:31.646Z,3.37
2019-01-15T08:12:10.400Z,3.33
2019-01-15T08:17:17.376Z,3.42
2019-01-15T08:22:22.920Z,3.45
2019-01-15T08:27:28.064Z,3.47
2019-01-15T08:32:33.242Z,3.49
2019-01-15T08:37:38.336Z,3.60
2019-01-15T08:42:43.531Z,3.56
2019-01-15T08:47:53.471Z,3.65
2019-01-15T08:52:58.760Z,3.71
2019-01-15T08:58:03.887Z,3.69
2019-01-15T09:03:09.293Z,3.61
2019-01-15T09:08:15.933Z,3.64
2019-01-15T09:13:21.135Z,3.70
2019-01-15T09:18:26.397Z,3.57
2019-01-15T09:23:34.391Z,3.67
2019-01-15T09:28:39.421Z,3.61
2019-01-15T09:33:44.896Z,3.61
2019-01-15T09:38:50.096Z,3.55
2019-01-15T09:43:55.374Z,3.34
2019-01-15T09:49:02.819Z,3.29
2019-01-15T09:54:10.294Z,3.30
2019-01-15T09:59:15.384Z,3.39
2019-01-15T10:04:20.476Z,3.50
2019-01-15T10:09:25.654Z,3.63
2019-01-15T10:14:40.995Z,3.72
2019-01-15T10:19:41.742Z,3.73
2019-01-15T10:24:47.655Z,3.78
2019-01-15T10:29:59.201Z,3.81
2019-01-15T10:35:06.795Z,3.86
2019-01-15T10:40:13.814Z,3.91
2019-01-15T10:45:18.922Z,4.01
2019-01-15T10:50:25.286Z,4.06
2019-01-15T10:55:30.614Z,4.14
2019-01-15T11:00:35.849Z,4.22
2019-01-15T11:05:46.022Z,4.35
2019-01-15T11:10:51.376Z,4.39
2019-01-15T11:16:11.980Z,4.45
2019-01-15T11:21:17.560Z,4.52
2019-01-15T11:26:24.407Z,4.52
2019-01-15T11:31:29.797Z,4.51
2019-01-15T11:36:35.007Z,4.57
2019-01-15T11:41:52.550Z,4.54
2019-01-15T11:46:58.073Z,4.53
2019-01-15T11:52:03.639Z,4.51
2019-01-15T11:57:08.752Z,4.55
2019-01-15T12:02:32.080Z,4.62
2019-01-15T12:07:56.547Z,4.59
2019-01-15T12:13:27.852Z,4.70
2019-01-15T12:18:54.486Z,4.75
2019-01-15T12:24:23.970Z,4.78
2019-01-15T12:29:53.186Z,4.78
2019-01-15T12:35:25.140Z,4.82
2019-01-15T12:40:44.125Z,4.81
2019-01-15T12:46:08.808Z,4.77
2019-01-15T12:51:34.483Z,4.85
2019-01-15T12:57:05.518Z,4.96
2019-01-15T13:02:31.432Z,4.94
2019-01-15T13:07:55.964Z,4.98
2019-01-15T13:13:21.095Z,4.99
2019-01-15T13:18:44.112Z,5.03
2019-01-15T13:24:12.371Z,5.05
2019-01-15T13:29:45.451Z,5.06
2019-01-15T13:35:09.573Z,5.15
2019-01-15T13:40:30.955Z,5.15
2019-01-15T13:46:08.377Z,5.23
2019-01-15T13:51:45.788Z,5.28
2019-01-15T13:57:28.127Z,5.35
2019-01-15T14:02:58.416Z,5.41
2019-01-15T14:08:38.032Z,5.41
2019-01-15T14:14:00.807Z,5.37
2019-01-15T14:19:23.917Z,5.48
2019-01-15T14:24:58.295Z,5.49
2019-01-15T14:30:23.407Z,5.43
2019-01-15T14:35:58.576Z,5.45
2019-01-15T14:41:45.502Z,5.53
2019-01-15T14:47:25.235Z,5.50
2019-01-15T14:53:10.385Z,5.53
2019-01-15T14:58:40.526Z,5.44
2019-01-15T15:04:16.108Z,5.54
2019-01-15T15:09:39.182Z,5.59
2019-01-15T15:15:05.842Z,5.63
2019-01-15T15:20:43.112Z,5.66
2019-01-15T15:26:10.349Z,5.67
2019-01-15T15:31:36.906Z,5.63
2019-01-15T15:36:54.766Z,5.68
2019-01-15T15:42:13.796Z,5.68
2019-01-15T15:47:42.058Z,5.69
2019-01-15T15:53:11.009Z,5.69
2019-01-15T15:58:47.298Z,5.73
2019-01-15T16:04:14.515Z,5.80
2019-01-15T16:09:59.762Z,5.79
2019-01-15T16:15:14.124Z,5.67
2019-01-15T16:20:46.513Z,5.81
2019-01-15T16:26:09.935Z,5.81
2019-01-15T16:31:46.534Z,5.79
2019-01-15T16:37:25.653Z,5.81
2019-01-15T16:42:50.610Z,5.93
2019-01-15T16:48:14.647Z,5.93
2019-01-15T16:53:39.382Z,5.93
2019-01-15T16:59:02.762Z,5.95
2019-01-15T17:04:27.487Z,6.01
2019-01-15T17:09:55.740Z,6.04
2019-01-15T17:15:25.981Z,6.05
2019-01-15T17:20:57.780Z,6.07
2019-01-15T17:26:14.457Z,6.13
2019-01-15T17:31:38.595Z,6.12
2019-01-15T17:36:56.598Z,6.08
2019-01-15T17:42:18.358Z,6.11
2019-01-15T17:47:41.705Z,6.12
2019-01-15T17:53:09.290Z,6.19
2019-01-15T17:58:24.581Z,6.25
2019-01-15T18:03:53.681Z,6.20
2019-01-15T18:09:26.200Z,6.24
2019-01-15T18:15:02.553Z,6.30
2019-01-15T18:20:25.617Z,6.27
2019-01-15T18:26:08.078Z,6.34
2019-01-15T18:31:30.828Z,6.31
2019-01-15T18:37:03.808Z,6.38
2019-01-15T18:42:35.768Z,6.36
2019-01-15T18:47:59.370Z,6.44
2019-01-15T18:59:04.316Z,6.47
2019-01-15T19:04:27.363Z,6.52
2019-01-15T19:09:56.918Z,6.50
2019-01-15T19:15:34.202Z,6.46
2019-01-15T19:21:05.138Z,6.50
2019-01-15T19:26:37.751Z,6.51
2019-01-15T19:32:37.976Z,6.55
2019-01-15T19:38:20.691Z,6.54
2019-01-15T19:43:47.624Z,6.61
2019-01-15T19:49:20.378Z,6.60
2019-01-15T19:54:54.722Z,6.63
2019-01-15T20:00:19.261Z,6.66
2019-01-15T20:05:42.240Z,6.66
2019-01-15T20:11:12.809Z,6.62
2019-01-15T20:17:02.089Z,6.56
2019-01-15T20:22:39.167Z,6.62
2019-01-15T20:28:16.094Z,6.65
2019-01-15T20:33:47.073Z,6.59
2019-01-15T20:39:16.415Z,6.59
2019-01-15T20:44:41.221Z,6.60
2019-01-15T20:50:08.294Z,6.54
2019-01-15T20:55:35.490Z,6.56
2019-01-15T21:01:14.485Z,6.65
2019-01-15T21:06:37.724Z,6.68
2019-01-15T21:12:11.606Z,6.69
2019-01-15T21:17:39.550Z,6.61
2019-01-15T21:23:09.905Z,6.65
2019-01-15T21:28:37.356Z,6.62
2019-01-15T21:34:02.482Z,6.65
2019-01-15T21:39:32.887Z,6.65
2019-01-15T21:44:56.663Z,6.62
2019-01-15T21:50:21.532Z,6.51
2019-01-15T21:55:57.807Z,6.60
2019-01-15T22:01:30.750Z,6.57
2019-01-15T22:06:55.184Z,6.56
2019-01-15T22:12:18.218Z,6.55
2019-01-15T22:17:36.882Z,6.55
2019-01-15T22:23:01.206Z,6.56
2019-01-15T22:28:31.110Z,6.48
2019-01-15T22:33:58.122Z,6.46
2019-01-15T22:39:14.983Z,6.52
2019-01-15T22:44:44.136Z,6.47
2019-01-15T22:50:26.193Z,6.50
2019-01-15T22:56:02.758Z,6.52
2019-01-15T23:01:24.965Z,6.53
2019-01-15T23:06:48.084Z,6.57
2019-01-15T23:12:05.647Z,6.65
2019-01-15T23:17:28.720Z,6.66
2019-01-15T23:23:08.073Z,6.65
2019-01-15T23:28:31.044Z,6.67
2019-01-15T23:33:54.929Z,6.65
2019-01-15T23:39:24.761Z,6.74
2019-01-15T23:50:35.749Z,6.70
2019-01-15T23:55:59.772Z,6.73
